sensor_id;sensor_type;location;lat;lon;timestamp;P1;durP1;ratioP1;P2;durP2;ratioP2
4569;SDS011;2297;51.442;6.996;2024-01-06T00:00:22;22.33;;;11.05;;
4569;SDS011;2297;51.442;6.996;2024-01-06T00:02:48;20.48;;;11.40;;
4569;SDS011;2297;51.442;6.996;2024-01-06T00:05:15;23.83;;;12.38;;
4569;SDS011;2297;51.442;6.996;2024-01-06T00:07:42;23.02;;;11.98;;
4569;SDS011;2297;51.442;6.996;2024-01-06T00:10:09;20.75;;;11.75;;
4569;SDS011;2297;51.442;6.996;2024-01-06T00:12:37;19.90;;;11.13;;
4569;SDS011;2297;51.442;6.996;2024-01-06T00:15:04;18.80;;;10.98;;
4569;SDS011;2297;51.442;6.996;2024-01-06T00:17:32;17.90;;;10.50;;
4569;SDS011;2297;51.442;6.996;2024-01-06T00:19:58;18.00;;;10.55;;
4569;SDS011;2297;51.442;6.996;2024-01-06T00:22:27;20.45;;;10.63;;
4569;SDS011;2297;51.442;6.996;2024-01-06T00:24:54;22.02;;;11.23;;
4569;SDS011;2297;51.442;6.996;2024-01-06T00:27:21;20.52;;;10.90;;
4569;SDS011;2297;51.442;6.996;2024-01-06T00:29:49;18.58;;;9.88;;
4569;SDS011;2297;51.442;6.996;2024-01-06T00:32:15;18.05;;;10.05;;
4569;SDS011;2297;51.442;6.996;2024-01-06T00:34:42;16.67;;;9.80;;
4569;SDS011;2297;51.442;6.996;2024-01-06T00:37:08;19.33;;;9.75;;
4569;SDS011;2297;51.442;6.996;2024-01-06T00:39:35;16.63;;;9.20;;
4569;SDS011;2297;51.442;6.996;2024-01-06T00:42:02;15.35;;;9.65;;
4569;SDS011;2297;51.442;6.996;2024-01-06T00:44:29;17.13;;;10.50;;
4569;SDS011;2297;51.442;6.996;2024-01-06T00:46:57;18.00;;;9.68;;
4569;SDS011;2297;51.442;6.996;2024-01-06T00:49:23;16.25;;;10.13;;
4569;SDS011;2297;51.442;6.996;2024-01-06T00:51:50;15.48;;;9.65;;
4569;SDS011;2297;51.442;6.996;2024-01-06T00:54:17;33.78;;;10.90;;
4569;SDS011;2297;51.442;6.996;2024-01-06T00:56:43;17.75;;;10.13;;
4569;SDS011;2297;51.442;6.996;2024-01-06T00:59:10;17.17;;;9.82;;
4569;SDS011;2297;51.442;6.996;2024-01-06T01:01:36;17.48;;;10.13;;
4569;SDS011;2297;51.442;6.996;2024-01-06T01:04:04;17.83;;;9.38;;
4569;SDS011;2297;51.442;6.996;2024-01-06T01:06:31;15.85;;;9.57;;
4569;SDS011;2297;51.442;6.996;2024-01-06T01:08:58;15.70;;;9.27;;
4569;SDS011;2297;51.442;6.996;2024-01-06T01:11:24;18.85;;;10.23;;
4569;SDS011;2297;51.442;6.996;2024-01-06T01:13:51;18.63;;;10.15;;
4569;SDS011;2297;51.442;6.996;2024-01-06T01:16:18;19.60;;;9.77;;
4569;SDS011;2297;51.442;6.996;2024-01-06T01:18:44;15.25;;;8.77;;
4569;SDS011;2297;51.442;6.996;2024-01-06T01:21:12;15.90;;;8.90;;
4569;SDS011;2297;51.442;6.996;2024-01-06T01:23:39;17.40;;;10.02;;
4569;SDS011;2297;51.442;6.996;2024-01-06T01:26:05;17.77;;;9.65;;
4569;SDS011;2297;51.442;6.996;2024-01-06T01:28:32;15.93;;;9.70;;
4569;SDS011;2297;51.442;6.996;2024-01-06T01:34:21;18.60;;;10.50;;
4569;SDS011;2297;51.442;6.996;2024-01-06T01:36:49;19.77;;;11.55;;
4569;SDS011;2297;51.442;6.996;2024-01-06T01:39:15;21.35;;;11.93;;
4569;SDS011;2297;51.442;6.996;2024-01-06T01:41:43;20.20;;;10.98;;
4569;SDS011;2297;51.442;6.996;2024-01-06T01:44:09;20.65;;;11.10;;
4569;SDS011;2297;51.442;6.996;2024-01-06T01:46:36;20.55;;;11.55;;
4569;SDS011;2297;51.442;6.996;2024-01-06T01:49:03;21.25;;;11.82;;
4569;SDS011;2297;51.442;6.996;2024-01-06T01:51:31;22.80;;;12.00;;
4569;SDS011;2297;51.442;6.996;2024-01-06T01:54:01;21.80;;;12.02;;
4569;SDS011;2297;51.442;6.996;2024-01-06T01:56:29;20.42;;;10.93;;
4569;SDS011;2297;51.442;6.996;2024-01-06T01:58:59;22.67;;;12.18;;
4569;SDS011;2297;51.442;6.996;2024-01-06T02:01:27;20.63;;;11.77;;
4569;SDS011;2297;51.442;6.996;2024-01-06T02:03:54;23.02;;;11.90;;
4569;SDS011;2297;51.442;6.996;2024-01-06T02:06:21;23.10;;;12.95;;
4569;SDS011;2297;51.442;6.996;2024-01-06T02:08:47;24.42;;;12.77;;
4569;SDS011;2297;51.442;6.996;2024-01-06T02:11:16;24.15;;;13.02;;
4569;SDS011;2297;51.442;6.996;2024-01-06T02:13:42;25.23;;;12.43;;
4569;SDS011;2297;51.442;6.996;2024-01-06T02:16:09;22.15;;;11.98;;
4569;SDS011;2297;51.442;6.996;2024-01-06T02:18:35;23.23;;;12.48;;
4569;SDS011;2297;51.442;6.996;2024-01-06T02:21:02;24.45;;;12.70;;
4569;SDS011;2297;51.442;6.996;2024-01-06T02:23:30;24.08;;;13.05;;
4569;SDS011;2297;51.442;6.996;2024-01-06T02:25:57;22.40;;;12.45;;
4569;SDS011;2297;51.442;6.996;2024-01-06T02:28:24;23.20;;;12.02;;
4569;SDS011;2297;51.442;6.996;2024-01-06T02:30:50;25.38;;;12.95;;
4569;SDS011;2297;51.442;6.996;2024-01-06T02:33:17;23.15;;;12.88;;
4569;SDS011;2297;51.442;6.996;2024-01-06T02:35:44;24.02;;;12.40;;
4569;SDS011;2297;51.442;6.996;2024-01-06T02:38:11;25.95;;;13.23;;
4569;SDS011;2297;51.442;6.996;2024-01-06T02:40:39;24.73;;;12.88;;
4569;SDS011;2297;51.442;6.996;2024-01-06T02:43:06;26.80;;;13.93;;
4569;SDS011;2297;51.442;6.996;2024-01-06T02:45:32;24.55;;;13.27;;
4569;SDS011;2297;51.442;6.996;2024-01-06T02:47:59;28.23;;;14.65;;
4569;SDS011;2297;51.442;6.996;2024-01-06T02:50:25;25.13;;;13.38;;
4569;SDS011;2297;51.442;6.996;2024-01-06T02:52:52;24.65;;;13.48;;
4569;SDS011;2297;51.442;6.996;2024-01-06T02:55:19;27.98;;;13.50;;
4569;SDS011;2297;51.442;6.996;2024-01-06T02:57:46;27.05;;;13.18;;
4569;SDS011;2297;51.442;6.996;2024-01-06T03:00:13;29.13;;;14.75;;
4569;SDS011;2297;51.442;6.996;2024-01-06T03:02:41;27.92;;;14.35;;
4569;SDS011;2297;51.442;6.996;2024-01-06T03:05:08;23.00;;;12.65;;
4569;SDS011;2297;51.442;6.996;2024-01-06T03:07:35;24.95;;;12.95;;
4569;SDS011;2297;51.442;6.996;2024-01-06T03:10:01;26.55;;;13.00;;
4569;SDS011;2297;51.442;6.996;2024-01-06T03:12:28;28.15;;;14.50;;
4569;SDS011;2297;51.442;6.996;2024-01-06T03:14:56;25.20;;;12.95;;
4569;SDS011;2297;51.442;6.996;2024-01-06T03:17:23;27.00;;;13.27;;
4569;SDS011;2297;51.442;6.996;2024-01-06T03:19:50;22.63;;;12.13;;
4569;SDS011;2297;51.442;6.996;2024-01-06T03:22:16;23.00;;;11.75;;
4569;SDS011;2297;51.442;6.996;2024-01-06T03:24:43;21.30;;;11.82;;
4569;SDS011;2297;51.442;6.996;2024-01-06T03:27:09;24.27;;;11.90;;
4569;SDS011;2297;51.442;6.996;2024-01-06T03:29:37;21.77;;;11.50;;
4569;SDS011;2297;51.442;6.996;2024-01-06T03:32:06;20.52;;;11.02;;
4569;SDS011;2297;51.442;6.996;2024-01-06T03:34:32;22.95;;;11.45;;
4569;SDS011;2297;51.442;6.996;2024-01-06T03:36:59;20.42;;;10.40;;
4569;SDS011;2297;51.442;6.996;2024-01-06T03:39:26;19.05;;;9.38;;
4569;SDS011;2297;51.442;6.996;2024-01-06T03:41:52;15.93;;;8.18;;
4569;SDS011;2297;51.442;6.996;2024-01-06T03:44:19;15.52;;;7.40;;
4569;SDS011;2297;51.442;6.996;2024-01-06T03:46:45;15.10;;;7.53;;
4569;SDS011;2297;51.442;6.996;2024-01-06T03:49:13;14.68;;;7.40;;
4569;SDS011;2297;51.442;6.996;2024-01-06T03:51:40;13.75;;;7.18;;
4569;SDS011;2297;51.442;6.996;2024-01-06T03:54:07;13.32;;;6.43;;
4569;SDS011;2297;51.442;6.996;2024-01-06T03:56:33;11.77;;;6.38;;
4569;SDS011;2297;51.442;6.996;2024-01-06T03:59:00;12.90;;;6.63;;
4569;SDS011;2297;51.442;6.996;2024-01-06T04:01:26;14.88;;;7.32;;
4569;SDS011;2297;51.442;6.996;2024-01-06T04:03:54;13.45;;;6.50;;
4569;SDS011;2297;51.442;6.996;2024-01-06T04:06:21;14.48;;;7.47;;
4569;SDS011;2297;51.442;6.996;2024-01-06T04:08:48;14.63;;;6.38;;
4569;SDS011;2297;51.442;6.996;2024-01-06T04:11:15;12.77;;;6.63;;
4569;SDS011;2297;51.442;6.996;2024-01-06T04:13:42;13.23;;;6.43;;
4569;SDS011;2297;51.442;6.996;2024-01-06T04:16:08;14.05;;;6.47;;
4569;SDS011;2297;51.442;6.996;2024-01-06T04:18:35;13.63;;;7.05;;
4569;SDS011;2297;51.442;6.996;2024-01-06T04:21:01;13.85;;;6.88;;
4569;SDS011;2297;51.442;6.996;2024-01-06T04:23:31;13.35;;;6.72;;
4569;SDS011;2297;51.442;6.996;2024-01-06T04:25:57;14.25;;;6.95;;
4569;SDS011;2297;51.442;6.996;2024-01-06T04:28:24;13.32;;;6.53;;
4569;SDS011;2297;51.442;6.996;2024-01-06T04:30:51;15.13;;;7.85;;
4569;SDS011;2297;51.442;6.996;2024-01-06T04:33:17;16.42;;;7.38;;
4569;SDS011;2297;51.442;6.996;2024-01-06T04:35:44;15.07;;;7.00;;
4569;SDS011;2297;51.442;6.996;2024-01-06T04:38:10;14.10;;;6.97;;
4569;SDS011;2297;51.442;6.996;2024-01-06T04:40:38;14.55;;;7.13;;
4569;SDS011;2297;51.442;6.996;2024-01-06T04:43:04;15.40;;;7.30;;
4569;SDS011;2297;51.442;6.996;2024-01-06T04:45:31;16.45;;;7.55;;
4569;SDS011;2297;51.442;6.996;2024-01-06T04:47:57;14.18;;;7.40;;
4569;SDS011;2297;51.442;6.996;2024-01-06T04:50:24;17.70;;;8.63;;
4569;SDS011;2297;51.442;6.996;2024-01-06T04:52:51;14.20;;;7.05;;
4569;SDS011;2297;51.442;6.996;2024-01-06T04:55:17;13.95;;;7.18;;
4569;SDS011;2297;51.442;6.996;2024-01-06T04:57:45;12.20;;;6.43;;
4569;SDS011;2297;51.442;6.996;2024-01-06T05:00:12;15.18;;;7.32;;
4569;SDS011;2297;51.442;6.996;2024-01-06T05:02:39;15.48;;;7.47;;
4569;SDS011;2297;51.442;6.996;2024-01-06T05:05:06;15.10;;;7.43;;
4569;SDS011;2297;51.442;6.996;2024-01-06T05:07:33;16.38;;;7.30;;
4569;SDS011;2297;51.442;6.996;2024-01-06T05:10:00;15.13;;;7.13;;
4569;SDS011;2297;51.442;6.996;2024-01-06T05:12:27;13.98;;;6.95;;
4569;SDS011;2297;51.442;6.996;2024-01-06T05:14:55;16.23;;;7.65;;
4569;SDS011;2297;51.442;6.996;2024-01-06T05:17:21;16.10;;;7.85;;
4569;SDS011;2297;51.442;6.996;2024-01-06T05:19:48;13.82;;;6.70;;
4569;SDS011;2297;51.442;6.996;2024-01-06T05:22:14;14.05;;;6.65;;
4569;SDS011;2297;51.442;6.996;2024-01-06T05:24:41;15.50;;;6.93;;
4569;SDS011;2297;51.442;6.996;2024-01-06T05:27:08;13.57;;;6.57;;
4569;SDS011;2297;51.442;6.996;2024-01-06T05:29:34;14.70;;;6.85;;
4569;SDS011;2297;51.442;6.996;2024-01-06T05:32:02;14.68;;;6.80;;
4569;SDS011;2297;51.442;6.996;2024-01-06T05:34:29;17.98;;;7.85;;
4569;SDS011;2297;51.442;6.996;2024-01-06T05:36:56;17.98;;;7.57;;
4569;SDS011;2297;51.442;6.996;2024-01-06T05:39:23;14.80;;;6.95;;
4569;SDS011;2297;51.442;6.996;2024-01-06T05:41:50;15.13;;;7.25;;
4569;SDS011;2297;51.442;6.996;2024-01-06T05:44:17;13.90;;;7.10;;
4569;SDS011;2297;51.442;6.996;2024-01-06T05:46:43;14.23;;;6.95;;
4569;SDS011;2297;51.442;6.996;2024-01-06T05:49:11;13.90;;;6.72;;
4569;SDS011;2297;51.442;6.996;2024-01-06T05:51:43;13.85;;;6.63;;
4569;SDS011;2297;51.442;6.996;2024-01-06T05:54:10;14.85;;;7.22;;
4569;SDS011;2297;51.442;6.996;2024-01-06T05:56:37;13.60;;;6.60;;
4569;SDS011;2297;51.442;6.996;2024-01-06T05:59:04;13.70;;;6.78;;
4569;SDS011;2297;51.442;6.996;2024-01-06T06:01:30;13.75;;;6.47;;
4569;SDS011;2297;51.442;6.996;2024-01-06T06:03:57;12.23;;;6.50;;
4569;SDS011;2297;51.442;6.996;2024-01-06T06:06:25;14.45;;;6.82;;
4569;SDS011;2297;51.442;6.996;2024-01-06T06:08:52;14.27;;;6.78;;
4569;SDS011;2297;51.442;6.996;2024-01-06T06:11:18;15.23;;;7.18;;
4569;SDS011;2297;51.442;6.996;2024-01-06T06:13:45;11.13;;;6.10;;
4569;SDS011;2297;51.442;6.996;2024-01-06T06:16:12;11.45;;;5.93;;
4569;SDS011;2297;51.442;6.996;2024-01-06T06:18:39;13.68;;;6.75;;
4569;SDS011;2297;51.442;6.996;2024-01-06T06:21:05;13.50;;;6.78;;
4569;SDS011;2297;51.442;6.996;2024-01-06T06:23:34;10.82;;;5.63;;
4569;SDS011;2297;51.442;6.996;2024-01-06T06:26:03;13.52;;;6.57;;
4569;SDS011;2297;51.442;6.996;2024-01-06T06:28:31;11.30;;;5.85;;
4569;SDS011;2297;51.442;6.996;2024-01-06T06:30:57;13.73;;;6.40;;
4569;SDS011;2297;51.442;6.996;2024-01-06T06:33:24;14.10;;;6.13;;
4569;SDS011;2297;51.442;6.996;2024-01-06T06:35:50;9.75;;;5.03;;
4569;SDS011;2297;51.442;6.996;2024-01-06T06:38:17;11.02;;;5.78;;
4569;SDS011;2297;51.442;6.996;2024-01-06T06:40:45;15.23;;;6.18;;
4569;SDS011;2297;51.442;6.996;2024-01-06T06:43:12;12.00;;;6.00;;
4569;SDS011;2297;51.442;6.996;2024-01-06T06:45:38;14.18;;;6.40;;
4569;SDS011;2297;51.442;6.996;2024-01-06T06:48:05;14.00;;;6.70;;
4569;SDS011;2297;51.442;6.996;2024-01-06T06:50:33;14.90;;;6.82;;
4569;SDS011;2297;51.442;6.996;2024-01-06T06:52:59;15.88;;;7.18;;
4569;SDS011;2297;51.442;6.996;2024-01-06T06:55:27;14.73;;;6.93;;
4569;SDS011;2297;51.442;6.996;2024-01-06T06:57:55;16.27;;;7.50;;
4569;SDS011;2297;51.442;6.996;2024-01-06T07:00:21;15.20;;;7.75;;
4569;SDS011;2297;51.442;6.996;2024-01-06T07:02:48;15.88;;;7.55;;
4569;SDS011;2297;51.442;6.996;2024-01-06T07:05:15;13.48;;;6.90;;
4569;SDS011;2297;51.442;6.996;2024-01-06T07:07:42;17.85;;;8.60;;
4569;SDS011;2297;51.442;6.996;2024-01-06T07:10:11;18.00;;;8.77;;
4569;SDS011;2297;51.442;6.996;2024-01-06T07:12:38;17.13;;;8.40;;
4569;SDS011;2297;51.442;6.996;2024-01-06T07:15:07;19.20;;;9.20;;
4569;SDS011;2297;51.442;6.996;2024-01-06T07:17:35;18.08;;;8.73;;
4569;SDS011;2297;51.442;6.996;2024-01-06T07:20:01;16.77;;;8.15;;
4569;SDS011;2297;51.442;6.996;2024-01-06T07:22:28;17.08;;;8.50;;
4569;SDS011;2297;51.442;6.996;2024-01-06T07:24:55;18.35;;;7.75;;
4569;SDS011;2297;51.442;6.996;2024-01-06T07:27:21;19.13;;;8.55;;
4569;SDS011;2297;51.442;6.996;2024-01-06T07:29:48;21.05;;;10.32;;
4569;SDS011;2297;51.442;6.996;2024-01-06T07:32:16;22.10;;;10.63;;
4569;SDS011;2297;51.442;6.996;2024-01-06T07:34:42;21.15;;;9.85;;
4569;SDS011;2297;51.442;6.996;2024-01-06T07:37:09;18.30;;;8.60;;
4569;SDS011;2297;51.442;6.996;2024-01-06T07:39:36;18.50;;;9.02;;
4569;SDS011;2297;51.442;6.996;2024-01-06T07:42:02;18.00;;;8.63;;
4569;SDS011;2297;51.442;6.996;2024-01-06T07:44:29;21.80;;;9.40;;
4569;SDS011;2297;51.442;6.996;2024-01-06T07:46:56;19.50;;;9.20;;
4569;SDS011;2297;51.442;6.996;2024-01-06T07:49:24;16.10;;;8.27;;
4569;SDS011;2297;51.442;6.996;2024-01-06T07:51:51;17.55;;;8.60;;
4569;SDS011;2297;51.442;6.996;2024-01-06T07:54:17;16.10;;;8.30;;
4569;SDS011;2297;51.442;6.996;2024-01-06T07:56:44;19.50;;;8.40;;
4569;SDS011;2297;51.442;6.996;2024-01-06T07:59:10;20.60;;;8.63;;
4569;SDS011;2297;51.442;6.996;2024-01-06T08:01:37;19.58;;;8.68;;
4569;SDS011;2297;51.442;6.996;2024-01-06T08:04:03;20.42;;;8.75;;
4569;SDS011;2297;51.442;6.996;2024-01-06T08:06:31;17.70;;;8.02;;
4569;SDS011;2297;51.442;6.996;2024-01-06T08:08:58;19.80;;;8.27;;
4569;SDS011;2297;51.442;6.996;2024-01-06T08:11:25;21.42;;;9.75;;
4569;SDS011;2297;51.442;6.996;2024-01-06T08:13:52;18.33;;;8.23;;
4569;SDS011;2297;51.442;6.996;2024-01-06T08:16:18;19.77;;;8.90;;
4569;SDS011;2297;51.442;6.996;2024-01-06T08:18:45;25.48;;;9.20;;
4569;SDS011;2297;51.442;6.996;2024-01-06T08:21:12;20.67;;;9.35;;
4569;SDS011;2297;51.442;6.996;2024-01-06T08:23:40;17.08;;;8.40;;
4569;SDS011;2297;51.442;6.996;2024-01-06T08:26:06;19.98;;;8.90;;
4569;SDS011;2297;51.442;6.996;2024-01-06T08:28:33;22.65;;;9.32;;
4569;SDS011;2297;51.442;6.996;2024-01-06T08:31:00;19.40;;;9.35;;
4569;SDS011;2297;51.442;6.996;2024-01-06T08:33:26;27.35;;;10.77;;
4569;SDS011;2297;51.442;6.996;2024-01-06T08:35:53;20.67;;;9.48;;
4569;SDS011;2297;51.442;6.996;2024-01-06T08:38:19;20.65;;;8.98;;
4569;SDS011;2297;51.442;6.996;2024-01-06T08:40:48;22.95;;;9.90;;
4569;SDS011;2297;51.442;6.996;2024-01-06T08:43:16;21.52;;;9.80;;
4569;SDS011;2297;51.442;6.996;2024-01-06T08:45:43;24.33;;;10.48;;
4569;SDS011;2297;51.442;6.996;2024-01-06T08:48:13;23.65;;;10.00;;
4569;SDS011;2297;51.442;6.996;2024-01-06T08:50:40;26.42;;;10.35;;
4569;SDS011;2297;51.442;6.996;2024-01-06T08:53:06;60.05;;;25.95;;
4569;SDS011;2297;51.442;6.996;2024-01-06T08:55:33;24.50;;;10.30;;
4569;SDS011;2297;51.442;6.996;2024-01-06T08:58:01;21.95;;;9.55;;
4569;SDS011;2297;51.442;6.996;2024-01-06T09:00:28;23.00;;;9.80;;
4569;SDS011;2297;51.442;6.996;2024-01-06T09:02:55;24.70;;;9.73;;
4569;SDS011;2297;51.442;6.996;2024-01-06T09:05:21;23.25;;;10.05;;
4569;SDS011;2297;51.442;6.996;2024-01-06T09:07:48;21.40;;;9.98;;
4569;SDS011;2297;51.442;6.996;2024-01-06T09:10:15;22.77;;;9.68;;
4569;SDS011;2297;51.442;6.996;2024-01-06T09:12:42;25.15;;;10.45;;
4569;SDS011;2297;51.442;6.996;2024-01-06T09:15:10;23.60;;;10.73;;
4569;SDS011;2297;51.442;6.996;2024-01-06T09:17:37;20.92;;;9.27;;
4569;SDS011;2297;51.442;6.996;2024-01-06T09:20:04;22.80;;;9.27;;
4569;SDS011;2297;51.442;6.996;2024-01-06T09:22:31;21.23;;;9.52;;
4569;SDS011;2297;51.442;6.996;2024-01-06T09:24:58;22.92;;;9.55;;
4569;SDS011;2297;51.442;6.996;2024-01-06T09:27:25;20.60;;;8.93;;
4569;SDS011;2297;51.442;6.996;2024-01-06T09:29:51;24.73;;;9.55;;
4569;SDS011;2297;51.442;6.996;2024-01-06T09:32:19;18.58;;;8.13;;
4569;SDS011;2297;51.442;6.996;2024-01-06T09:34:47;15.18;;;7.15;;
4569;SDS011;2297;51.442;6.996;2024-01-06T09:37:14;17.75;;;8.07;;
4569;SDS011;2297;51.442;6.996;2024-01-06T09:39:41;15.15;;;7.50;;
4569;SDS011;2297;51.442;6.996;2024-01-06T09:42:08;15.95;;;6.82;;
4569;SDS011;2297;51.442;6.996;2024-01-06T09:44:35;15.05;;;7.20;;
4569;SDS011;2297;51.442;6.996;2024-01-06T09:47:02;14.10;;;6.25;;
4569;SDS011;2297;51.442;6.996;2024-01-06T09:49:32;16.02;;;6.70;;
4569;SDS011;2297;51.442;6.996;2024-01-06T09:52:01;16.33;;;7.25;;
4569;SDS011;2297;51.442;6.996;2024-01-06T09:54:32;14.95;;;6.50;;
4569;SDS011;2297;51.442;6.996;2024-01-06T09:57:03;12.70;;;6.38;;
4569;SDS011;2297;51.442;6.996;2024-01-06T09:59:31;16.15;;;6.45;;
4569;SDS011;2297;51.442;6.996;2024-01-06T10:01:59;14.98;;;6.85;;
4569;SDS011;2297;51.442;6.996;2024-01-06T10:04:27;16.95;;;7.13;;
4569;SDS011;2297;51.442;6.996;2024-01-06T10:06:55;15.65;;;6.93;;
4569;SDS011;2297;51.442;6.996;2024-01-06T10:09:25;13.93;;;6.68;;
4569;SDS011;2297;51.442;6.996;2024-01-06T10:11:54;14.13;;;6.47;;
4569;SDS011;2297;51.442;6.996;2024-01-06T10:14:22;16.95;;;7.18;;
4569;SDS011;2297;51.442;6.996;2024-01-06T10:16:49;16.35;;;7.32;;
4569;SDS011;2297;51.442;6.996;2024-01-06T10:19:16;16.10;;;6.65;;
4569;SDS011;2297;51.442;6.996;2024-01-06T10:21:43;17.88;;;6.68;;
4569;SDS011;2297;51.442;6.996;2024-01-06T10:24:11;13.13;;;5.57;;
4569;SDS011;2297;51.442;6.996;2024-01-06T10:26:38;12.63;;;6.15;;
4569;SDS011;2297;51.442;6.996;2024-01-06T10:29:05;14.63;;;6.20;;
4569;SDS011;2297;51.442;6.996;2024-01-06T10:31:32;14.77;;;5.80;;
4569;SDS011;2297;51.442;6.996;2024-01-06T10:34:00;16.02;;;6.53;;
4569;SDS011;2297;51.442;6.996;2024-01-06T10:36:27;15.63;;;6.25;;
4569;SDS011;2297;51.442;6.996;2024-01-06T10:38:56;11.85;;;5.70;;
4569;SDS011;2297;51.442;6.996;2024-01-06T10:41:24;15.05;;;7.05;;
4569;SDS011;2297;51.442;6.996;2024-01-06T10:43:52;15.25;;;7.07;;
4569;SDS011;2297;51.442;6.996;2024-01-06T10:46:20;12.10;;;6.18;;
4569;SDS011;2297;51.442;6.996;2024-01-06T10:48:50;13.85;;;6.65;;
4569;SDS011;2297;51.442;6.996;2024-01-06T10:51:18;16.05;;;6.47;;
4569;SDS011;2297;51.442;6.996;2024-01-06T10:53:46;16.60;;;6.93;;
4569;SDS011;2297;51.442;6.996;2024-01-06T10:56:14;12.68;;;6.40;;
4569;SDS011;2297;51.442;6.996;2024-01-06T10:58:45;16.30;;;7.55;;
4569;SDS011;2297;51.442;6.996;2024-01-06T11:01:14;14.35;;;6.57;;
4569;SDS011;2297;51.442;6.996;2024-01-06T11:03:41;15.60;;;7.88;;
4569;SDS011;2297;51.442;6.996;2024-01-06T11:06:09;18.40;;;7.28;;
4569;SDS011;2297;51.442;6.996;2024-01-06T11:08:40;15.00;;;7.55;;
4569;SDS011;2297;51.442;6.996;2024-01-06T11:11:14;18.55;;;7.72;;
4569;SDS011;2297;51.442;6.996;2024-01-06T11:13:43;18.98;;;8.10;;
4569;SDS011;2297;51.442;6.996;2024-01-06T11:16:12;23.23;;;10.77;;
4569;SDS011;2297;51.442;6.996;2024-01-06T11:19:01;18.13;;;8.07;;
4569;SDS011;2297;51.442;6.996;2024-01-06T11:21:29;17.48;;;8.00;;
4569;SDS011;2297;51.442;6.996;2024-01-06T11:24:13;14.07;;;6.80;;
4569;SDS011;2297;51.442;6.996;2024-01-06T11:26:42;15.48;;;7.30;;
4569;SDS011;2297;51.442;6.996;2024-01-06T11:29:11;14.20;;;6.88;;
4569;SDS011;2297;51.442;6.996;2024-01-06T11:31:38;16.98;;;7.57;;
4569;SDS011;2297;51.442;6.996;2024-01-06T11:34:14;18.67;;;7.95;;
4569;SDS011;2297;51.442;6.996;2024-01-06T11:36:44;14.68;;;6.93;;
4569;SDS011;2297;51.442;6.996;2024-01-06T11:42:00;16.13;;;7.47;;
4569;SDS011;2297;51.442;6.996;2024-01-06T11:44:29;15.38;;;7.35;;
4569;SDS011;2297;51.442;6.996;2024-01-06T11:46:56;23.25;;;11.20;;
4569;SDS011;2297;51.442;6.996;2024-01-06T11:49:23;17.85;;;7.72;;
4569;SDS011;2297;51.442;6.996;2024-01-06T11:51:53;16.40;;;8.05;;
4569;SDS011;2297;51.442;6.996;2024-01-06T11:54:20;17.75;;;8.15;;
4569;SDS011;2297;51.442;6.996;2024-01-06T11:56:47;21.85;;;8.82;;
4569;SDS011;2297;51.442;6.996;2024-01-06T11:59:14;18.58;;;8.35;;
4569;SDS011;2297;51.442;6.996;2024-01-06T12:01:42;23.50;;;9.75;;
4569;SDS011;2297;51.442;6.996;2024-01-06T12:04:10;22.92;;;9.50;;
4569;SDS011;2297;51.442;6.996;2024-01-06T12:06:40;23.50;;;10.43;;
4569;SDS011;2297;51.442;6.996;2024-01-06T12:09:10;22.70;;;10.55;;
4569;SDS011;2297;51.442;6.996;2024-01-06T12:11:39;24.40;;;11.10;;
4569;SDS011;2297;51.442;6.996;2024-01-06T12:14:06;21.45;;;10.00;;
4569;SDS011;2297;51.442;6.996;2024-01-06T12:16:32;19.85;;;9.13;;
4569;SDS011;2297;51.442;6.996;2024-01-06T12:19:01;16.95;;;8.35;;
4569;SDS011;2297;51.442;6.996;2024-01-06T12:21:28;21.23;;;8.00;;
4569;SDS011;2297;51.442;6.996;2024-01-06T12:24:11;16.30;;;7.32;;
4569;SDS011;2297;51.442;6.996;2024-01-06T12:29:47;19.40;;;8.05;;
4569;SDS011;2297;51.442;6.996;2024-01-06T12:32:14;14.38;;;7.20;;
4569;SDS011;2297;51.442;6.996;2024-01-06T12:34:42;15.23;;;6.80;;
4569;SDS011;2297;51.442;6.996;2024-01-06T12:37:08;16.50;;;7.30;;
4569;SDS011;2297;51.442;6.996;2024-01-06T12:39:35;13.02;;;6.38;;
4569;SDS011;2297;51.442;6.996;2024-01-06T12:42:02;14.80;;;6.40;;
4569;SDS011;2297;51.442;6.996;2024-01-06T12:44:29;14.48;;;7.70;;
4569;SDS011;2297;51.442;6.996;2024-01-06T12:46:57;16.60;;;7.22;;
4569;SDS011;2297;51.442;6.996;2024-01-06T12:49:24;33.60;;;15.02;;
4569;SDS011;2297;51.442;6.996;2024-01-06T12:51:52;19.98;;;8.90;;
4569;SDS011;2297;51.442;6.996;2024-01-06T12:54:19;19.88;;;7.50;;
4569;SDS011;2297;51.442;6.996;2024-01-06T12:56:45;15.40;;;6.75;;
4569;SDS011;2297;51.442;6.996;2024-01-06T12:59:12;22.05;;;8.10;;
4569;SDS011;2297;51.442;6.996;2024-01-06T13:01:39;14.38;;;6.68;;
4569;SDS011;2297;51.442;6.996;2024-01-06T13:07:04;16.98;;;8.32;;
4569;SDS011;2297;51.442;6.996;2024-01-06T13:09:31;17.33;;;8.55;;
4569;SDS011;2297;51.442;6.996;2024-01-06T13:11:58;18.42;;;8.73;;
4569;SDS011;2297;51.442;6.996;2024-01-06T13:14:26;13.70;;;7.60;;
4569;SDS011;2297;51.442;6.996;2024-01-06T13:16:54;18.08;;;8.60;;
4569;SDS011;2297;51.442;6.996;2024-01-06T13:19:20;21.38;;;10.43;;
4569;SDS011;2297;51.442;6.996;2024-01-06T13:21:47;23.38;;;10.93;;
4569;SDS011;2297;51.442;6.996;2024-01-06T13:24:15;20.92;;;10.55;;
4569;SDS011;2297;51.442;6.996;2024-01-06T13:26:42;29.30;;;12.68;;
4569;SDS011;2297;51.442;6.996;2024-01-06T13:29:08;23.85;;;10.68;;
4569;SDS011;2297;51.442;6.996;2024-01-06T13:31:35;19.45;;;9.77;;
4569;SDS011;2297;51.442;6.996;2024-01-06T13:34:02;17.70;;;8.68;;
4569;SDS011;2297;51.442;6.996;2024-01-06T13:36:29;18.77;;;7.85;;
4569;SDS011;2297;51.442;6.996;2024-01-06T13:38:56;15.73;;;6.72;;
4569;SDS011;2297;51.442;6.996;2024-01-06T13:41:27;15.98;;;7.60;;
4569;SDS011;2297;51.442;6.996;2024-01-06T13:43:53;16.77;;;7.50;;
4569;SDS011;2297;51.442;6.996;2024-01-06T13:46:20;17.58;;;7.75;;
4569;SDS011;2297;51.442;6.996;2024-01-06T13:48:47;18.05;;;8.10;;
4569;SDS011;2297;51.442;6.996;2024-01-06T13:51:13;15.32;;;7.57;;
4569;SDS011;2297;51.442;6.996;2024-01-06T13:53:40;22.23;;;8.70;;
4569;SDS011;2297;51.442;6.996;2024-01-06T13:56:07;19.83;;;8.52;;
4569;SDS011;2297;51.442;6.996;2024-01-06T13:58:35;17.90;;;7.57;;
4569;SDS011;2297;51.442;6.996;2024-01-06T14:01:03;18.42;;;8.77;;
4569;SDS011;2297;51.442;6.996;2024-01-06T14:03:31;21.42;;;8.65;;
4569;SDS011;2297;51.442;6.996;2024-01-06T14:05:58;18.27;;;7.35;;
4569;SDS011;2297;51.442;6.996;2024-01-06T14:08:24;22.42;;;7.45;;
4569;SDS011;2297;51.442;6.996;2024-01-06T14:10:51;17.50;;;8.48;;
4569;SDS011;2297;51.442;6.996;2024-01-06T14:13:17;22.20;;;9.18;;
4569;SDS011;2297;51.442;6.996;2024-01-06T14:15:45;19.48;;;9.38;;
4569;SDS011;2297;51.442;6.996;2024-01-06T14:18:12;24.35;;;10.85;;
4569;SDS011;2297;51.442;6.996;2024-01-06T14:20:41;22.77;;;9.98;;
4569;SDS011;2297;51.442;6.996;2024-01-06T14:23:07;22.83;;;10.68;;
4569;SDS011;2297;51.442;6.996;2024-01-06T14:25:35;22.48;;;10.30;;
4569;SDS011;2297;51.442;6.996;2024-01-06T14:28:02;23.60;;;11.60;;
4569;SDS011;2297;51.442;6.996;2024-01-06T14:30:28;22.50;;;10.38;;
4569;SDS011;2297;51.442;6.996;2024-01-06T14:32:56;25.70;;;10.38;;
4569;SDS011;2297;51.442;6.996;2024-01-06T14:35:23;20.95;;;10.27;;
4569;SDS011;2297;51.442;6.996;2024-01-06T14:37:50;24.48;;;10.85;;
4569;SDS011;2297;51.442;6.996;2024-01-06T14:40:18;26.58;;;11.65;;
4569;SDS011;2297;51.442;6.996;2024-01-06T14:42:44;26.08;;;12.18;;
4569;SDS011;2297;51.442;6.996;2024-01-06T14:45:11;21.58;;;11.07;;
4569;SDS011;2297;51.442;6.996;2024-01-06T14:47:39;24.60;;;11.82;;
4569;SDS011;2297;51.442;6.996;2024-01-06T14:50:07;25.90;;;12.43;;
4569;SDS011;2297;51.442;6.996;2024-01-06T14:52:34;25.70;;;12.98;;
4569;SDS011;2297;51.442;6.996;2024-01-06T14:55:01;26.85;;;12.65;;
4569;SDS011;2297;51.442;6.996;2024-01-06T14:57:27;27.70;;;13.95;;
4569;SDS011;2297;51.442;6.996;2024-01-06T14:59:54;27.92;;;13.38;;
4569;SDS011;2297;51.442;6.996;2024-01-06T15:02:20;29.70;;;14.25;;
4569;SDS011;2297;51.442;6.996;2024-01-06T15:04:47;28.38;;;14.00;;
4569;SDS011;2297;51.442;6.996;2024-01-06T15:07:15;25.23;;;13.00;;
4569;SDS011;2297;51.442;6.996;2024-01-06T15:09:41;23.35;;;11.65;;